createdAt,value
2022-09-03T00:00:10.669Z,19.50
2022-09-03T00:02:46.252Z,19.48
2022-09-03T00:05:37.335Z,19.44
2022-09-03T00:08:23.157Z,19.45
2022-09-03T00:11:23.445Z,19.35
2022-09-03T00:14:26.812Z,19.48
2022-09-03T00:17:02.800Z,19.39
2022-09-03T00:19:37.369Z,19.43
2022-09-03T00:22:14.141Z,19.39
2022-09-03T00:24:44.069Z,19.39
2022-09-03T00:27:19.286Z,19.52
2022-09-03T00:30:06.804Z,19.54
2022-09-03T00:32:52.578Z,19.49
2022-09-03T00:35:34.461Z,19.51
2022-09-03T00:38:01.668Z,19.54
2022-09-03T00:41:04.341Z,19.50
2022-09-03T00:44:21.496Z,19.49
2022-09-03T00:46:54.304Z,19.52
2022-09-03T00:49:29.569Z,19.57
2022-09-03T00:52:05.227Z,19.55
2022-09-03T00:54:59.836Z,19.56
2022-09-03T00:57:57.971Z,19.61
2022-09-03T01:00:24.787Z,19.40
2022-09-03T01:03:12.794Z,19.48
2022-09-03T01:06:11.974Z,19.63
2022-09-03T01:09:33.298Z,19.62
2022-09-03T01:12:18.848Z,19.64
2022-09-03T01:15:04.402Z,19.63
2022-09-03T01:17:44.888Z,19.50
2022-09-03T01:20:28.674Z,19.52
2022-09-03T01:23:35.936Z,19.62
2022-09-03T01:26:34.883Z,19.65
2022-09-03T01:29:34.762Z,19.62
2022-09-03T01:32:25.873Z,19.62
2022-09-03T01:35:19.236Z,19.52
2022-09-03T01:38:17.178Z,19.62
2022-09-03T01:41:28.123Z,19.64
2022-09-03T01:44:25.599Z,19.60
2022-09-03T01:47:10.993Z,19.59
2022-09-03T01:50:17.501Z,19.62
2022-09-03T01:52:55.687Z,19.54
2022-09-03T01:55:44.025Z,19.62
2022-09-03T01:58:21.794Z,19.65
2022-09-03T02:00:56.747Z,19.62
2022-09-03T02:03:33.556Z,19.60
2022-09-03T02:06:01.786Z,19.60
2022-09-03T02:08:29.265Z,19.58
2022-09-03T02:11:02.687Z,19.60
2022-09-03T02:13:42.375Z,19.67
2022-09-03T02:16:28.136Z,19.57
2022-09-03T02:19:00.933Z,19.65
2022-09-03T02:21:35.252Z,19.55
2022-09-03T02:24:05.254Z,19.52
2022-09-03T02:26:32.361Z,19.43
2022-09-03T02:29:01.564Z,19.49
2022-09-03T02:31:28.875Z,19.33
2022-09-03T02:33:58.218Z,19.48
2022-09-03T02:36:33.557Z,19.27
2022-09-03T02:39:00.561Z,19.55
2022-09-03T02:41:27.534Z,19.56
2022-09-03T02:44:17.993Z,19.55
2022-09-03T02:46:53.610Z,19.43
2022-09-03T02:49:22.884Z,19.56
2022-09-03T02:51:51.788Z,19.39
2022-09-03T02:54:21.072Z,19.43
2022-09-03T02:56:49.821Z,19.49
2022-09-03T02:59:17.995Z,19.41
2022-09-03T03:01:46.660Z,19.40
2022-09-03T03:04:14.691Z,19.45
2022-09-03T03:06:41.498Z,19.32
2022-09-03T03:09:09.417Z,19.33
2022-09-03T03:11:38.544Z,19.25
2022-09-03T03:14:05.615Z,19.23
2022-09-03T03:16:33.616Z,19.22
2022-09-03T03:19:00.596Z,19.26
2022-09-03T03:21:28.038Z,19.20
2022-09-03T03:23:55.923Z,18.97
2022-09-03T03:26:24.169Z,18.99
2022-09-03T03:29:00.618Z,19.07
2022-09-03T03:31:27.990Z,19.17
2022-09-03T03:33:57.812Z,19.11
2022-09-03T03:36:28.341Z,19.08
2022-09-03T03:38:58.134Z,19.11
2022-09-03T03:41:28.389Z,19.13
2022-09-03T03:44:00.621Z,18.98
2022-09-03T03:46:35.428Z,18.91
2022-09-03T03:49:02.726Z,18.98
2022-09-03T03:51:32.583Z,19.02
2022-09-03T03:54:04.338Z,19.02
2022-09-03T03:56:32.486Z,18.92
2022-09-03T03:59:00.296Z,18.89
2022-09-03T04:01:28.957Z,19.01
2022-09-03T04:03:58.545Z,18.78
2022-09-03T04:06:25.765Z,18.90
2022-09-03T04:08:52.617Z,18.84
2022-09-03T04:11:24.002Z,18.97
2022-09-03T04:13:52.027Z,18.85
2022-09-03T04:16:22.455Z,18.91
2022-09-03T04:18:54.380Z,18.84
2022-09-03T04:21:28.597Z,18.91
2022-09-03T04:23:56.900Z,18.93
2022-09-03T04:26:32.573Z,18.87
2022-09-03T04:29:08.576Z,18.69
2022-09-03T04:31:37.430Z,18.90
2022-09-03T04:34:06.512Z,18.82
2022-09-03T04:36:34.997Z,18.74
2022-09-03T04:39:02.374Z,18.76
2022-09-03T04:41:31.515Z,18.79
2022-09-03T04:44:00.589Z,18.76
2022-09-03T04:46:33.138Z,18.84
2022-09-03T04:49:00.622Z,18.71
2022-09-03T04:51:28.565Z,18.81
2022-09-03T04:54:01.619Z,18.76
2022-09-03T04:56:35.070Z,18.81
2022-09-03T04:59:06.970Z,18.82
2022-09-03T05:01:36.399Z,18.75
2022-09-03T05:04:04.794Z,18.82
2022-09-03T05:06:33.164Z,18.77
2022-09-03T05:09:00.641Z,18.85
2022-09-03T05:11:29.380Z,18.80
2022-09-03T05:13:59.497Z,18.76
2022-09-03T05:16:30.070Z,18.82
2022-09-03T05:18:59.726Z,18.84
2022-09-03T05:21:26.907Z,18.87
2022-09-03T05:23:53.976Z,18.84
2022-09-03T05:26:28.628Z,18.75
2022-09-03T05:29:09.769Z,18.84
2022-09-03T05:31:39.235Z,18.85
2022-09-03T05:34:07.203Z,18.86
2022-09-03T05:36:37.422Z,18.75
2022-09-03T05:39:06.305Z,18.79
2022-09-03T05:41:33.982Z,18.84
2022-09-03T05:44:01.292Z,18.89
2022-09-03T05:46:33.886Z,18.88
2022-09-03T05:49:02.975Z,18.93
2022-09-03T05:51:31.008Z,18.89
2022-09-03T05:53:58.772Z,18.89
2022-09-03T05:56:28.209Z,18.76
2022-09-03T05:59:01.069Z,18.86
2022-09-03T06:01:33.902Z,18.89
2022-09-03T06:04:01.536Z,18.96
2022-09-03T06:06:31.930Z,18.83
2022-09-03T06:09:02.546Z,18.89
2022-09-03T06:11:32.898Z,18.94
2022-09-03T06:14:02.064Z,19.01
2022-09-03T06:16:32.135Z,18.91
2022-09-03T06:19:00.772Z,18.86
2022-09-03T06:21:28.676Z,19.01
2022-09-03T06:23:59.363Z,18.96
2022-09-03T06:26:28.707Z,18.97
2022-09-03T06:28:57.323Z,18.95
2022-09-03T06:31:24.972Z,18.99
2022-09-03T06:33:54.543Z,19.04
2022-09-03T06:36:23.104Z,18.99
2022-09-03T06:38:54.333Z,19.08
2022-09-03T06:41:25.360Z,19.10
2022-09-03T06:44:03.102Z,19.09
2022-09-03T06:46:34.985Z,19.20
2022-09-03T06:49:02.267Z,19.25
2022-09-03T06:51:31.990Z,19.19
2022-09-03T06:54:06.237Z,19.16
2022-09-03T06:56:39.572Z,19.27
2022-09-03T06:59:13.925Z,19.34
2022-09-03T07:01:45.189Z,19.22
2022-09-03T07:04:16.120Z,19.19
2022-09-03T07:06:44.361Z,19.33
2022-09-03T07:09:14.879Z,19.31
2022-09-03T07:11:47.271Z,19.41
2022-09-03T07:14:17.234Z,19.35
2022-09-03T07:16:44.133Z,19.52
2022-09-03T07:19:13.317Z,19.54
2022-09-03T07:21:44.080Z,19.54
2022-09-03T07:24:15.264Z,19.56
2022-09-03T07:26:49.321Z,19.47
2022-09-03T07:29:19.895Z,19.51
2022-09-03T07:31:46.856Z,19.52
2022-09-03T07:34:15.069Z,19.53
2022-09-03T07:36:48.883Z,19.66
2022-09-03T07:39:17.860Z,19.53
2022-09-03T07:41:46.023Z,19.59
2022-09-03T07:44:15.187Z,19.66
2022-09-03T07:46:43.690Z,19.76
2022-09-03T07:49:10.970Z,19.68
2022-09-03T07:51:39.294Z,19.78
2022-09-03T07:54:10.874Z,19.82
2022-09-03T07:56:39.713Z,19.78
2022-09-03T07:59:06.980Z,19.81
2022-09-03T08:01:35.250Z,19.81
2022-09-03T08:04:04.220Z,19.93
2022-09-03T08:06:33.957Z,19.98
2022-09-03T08:09:05.741Z,20.06
2022-09-03T08:11:43.320Z,20.11
2022-09-03T08:14:12.868Z,20.16
2022-09-03T08:16:44.115Z,20.20
2022-09-03T08:19:13.452Z,20.23
2022-09-03T08:21:44.642Z,20.25
2022-09-03T08:24:12.786Z,20.27
2022-09-03T08:26:51.143Z,20.29
2022-09-03T08:29:19.486Z,20.37
2022-09-03T08:31:46.555Z,20.35
2022-09-03T08:34:14.777Z,20.37
2022-09-03T08:36:41.867Z,20.28
2022-09-03T08:39:11.010Z,20.29
2022-09-03T08:41:53.318Z,20.30
2022-09-03T08:44:30.077Z,20.39
2022-09-03T08:47:22.601Z,20.40
2022-09-03T08:50:17.342Z,20.50
2022-09-03T08:53:02.429Z,20.44
2022-09-03T08:55:36.213Z,20.43
2022-09-03T08:58:10.772Z,20.50
2022-09-03T09:01:07.876Z,20.63
2022-09-03T09:03:49.781Z,20.69
2022-09-03T09:06:36.550Z,20.81
2022-09-03T09:09:35.579Z,20.96
2022-09-03T09:12:23.287Z,21.02
2022-09-03T09:15:12.154Z,21.10
2022-09-03T09:18:15.745Z,21.27
2022-09-03T09:21:21.372Z,21.29
2022-09-03T09:23:51.112Z,21.38
2022-09-03T09:26:24.113Z,21.38
2022-09-03T09:29:11.420Z,21.38
2022-09-03T09:31:40.080Z,21.41
2022-09-03T09:34:09.061Z,21.23
2022-09-03T09:36:54.471Z,21.31
2022-09-03T09:39:22.671Z,21.41
2022-09-03T09:41:59.631Z,21.45
2022-09-03T09:44:28.016Z,21.44
2022-09-03T09:47:32.610Z,21.53
2022-09-03T09:50:05.162Z,21.56
2022-09-03T09:52:32.247Z,21.55
2022-09-03T09:55:19.630Z,21.53
2022-09-03T09:57:46.533Z,21.66
2022-09-03T10:00:17.388Z,21.81
2022-09-03T10:02:54.494Z,21.84
2022-09-03T10:05:26.542Z,21.90
2022-09-03T10:08:06.595Z,22.01
2022-09-03T10:10:49.759Z,22.13
2022-09-03T10:13:19.354Z,22.47
2022-09-03T10:16:01.546Z,22.49
2022-09-03T10:18:45.743Z,22.63
2022-09-03T10:21:25.096Z,22.63
2022-09-03T10:24:25.854Z,22.67
2022-09-03T10:26:52.668Z,22.68
2022-09-03T10:29:29.394Z,22.64
2022-09-03T10:32:49.978Z,22.70
2022-09-03T10:35:38.218Z,22.63
2022-09-03T10:38:34.034Z,22.62
2022-09-03T10:41:48.584Z,22.69
2022-09-03T10:44:38.913Z,22.84
2022-09-03T10:47:42.895Z,22.75
2022-09-03T10:50:23.805Z,22.73
2022-09-03T10:52:53.278Z,22.60
2022-09-03T10:55:31.509Z,22.49
2022-09-03T10:58:50.732Z,22.61
2022-09-03T11:01:26.035Z,22.61
2022-09-03T11:04:30.641Z,22.60
2022-09-03T11:07:13.642Z,22.48
2022-09-03T11:09:52.626Z,22.61
2022-09-03T11:12:31.611Z,22.68
2022-09-03T11:15:07.298Z,22.56
2022-09-03T11:18:00.801Z,22.63
2022-09-03T11:20:28.055Z,22.60
2022-09-03T11:22:59.335Z,22.65
2022-09-03T11:25:34.801Z,22.73
2022-09-03T11:28:42.223Z,22.85
2022-09-03T11:31:31.493Z,22.70
2022-09-03T11:34:22.163Z,22.77
2022-09-03T11:36:50.636Z,22.71
2022-09-03T11:39:36.870Z,22.58
2022-09-03T11:42:28.714Z,22.51
2022-09-03T11:45:20.852Z,22.45
2022-09-03T11:47:48.312Z,22.42
2022-09-03T11:50:31.047Z,22.40
2022-09-03T11:53:28.352Z,22.45
2022-09-03T11:56:07.340Z,22.50
2022-09-03T11:58:37.795Z,22.62
2022-09-03T12:01:12.323Z,22.44
2022-09-03T12:03:52.020Z,22.56
2022-09-03T12:07:05.118Z,22.63
2022-09-03T12:09:46.039Z,22.43
2022-09-03T12:12:55.588Z,22.48
2022-09-03T12:15:50.368Z,22.54
2022-09-03T12:18:26.006Z,22.43
2022-09-03T12:20:52.824Z,22.35
2022-09-03T12:23:49.275Z,22.12
2022-09-03T12:26:23.757Z,21.23
2022-09-03T12:28:57.635Z,21.00
2022-09-03T12:31:31.308Z,20.12
2022-09-03T12:34:12.147Z,20.06
2022-09-03T12:36:47.894Z,19.74
2022-09-03T12:40:04.806Z,19.61
2022-09-03T12:42:23.721Z,19.36
2022-09-03T12:44:50.642Z,19.11
2022-09-03T12:47:37.987Z,18.94
2022-09-03T12:50:13.632Z,18.93
2022-09-03T12:52:57.128Z,19.01
2022-09-03T12:55:57.338Z,18.94
2022-09-03T12:58:27.765Z,19.03
2022-09-03T13:01:03.852Z,19.12
2022-09-03T13:03:57.937Z,19.09
2022-09-03T13:06:44.889Z,19.01
2022-09-03T13:09:13.258Z,19.16
2022-09-03T13:11:40.248Z,19.26
2022-09-03T13:14:11.717Z,19.30
2022-09-03T13:16:44.853Z,19.38
2022-09-03T13:19:51.110Z,19.28
2022-09-03T13:22:54.290Z,19.36
2022-09-03T13:25:46.139Z,19.33
2022-09-03T13:28:55.526Z,19.42
2022-09-03T13:31:33.934Z,19.53
2022-09-03T13:34:12.159Z,19.58
2022-09-03T13:36:56.805Z,19.67
2022-09-03T13:39:42.140Z,19.78
2022-09-03T13:42:24.148Z,19.86
2022-09-03T13:45:00.406Z,19.88
2022-09-03T13:48:01.694Z,20.01
2022-09-03T13:50:33.877Z,20.09
2022-09-03T13:53:04.801Z,20.16
2022-09-03T13:55:31.524Z,20.28
2022-09-03T13:58:20.362Z,20.40
2022-09-03T14:01:20.149Z,20.30
2022-09-03T14:03:58.731Z,20.51
2022-09-03T14:06:38.017Z,20.57
2022-09-03T14:09:34.819Z,20.54
2022-09-03T14:12:14.187Z,20.60
2022-09-03T14:15:05.460Z,20.68
2022-09-03T14:17:59.249Z,20.52
2022-09-03T14:20:31.538Z,20.81
2022-09-03T14:23:26.182Z,20.84
2022-09-03T14:25:57.577Z,20.77
2022-09-03T14:28:41.910Z,20.77
2022-09-03T14:31:41.949Z,20.91
2022-09-03T14:34:38.161Z,21.01
2022-09-03T14:37:31.403Z,21.09
2022-09-03T14:40:21.967Z,21.13
2022-09-03T14:43:22.107Z,21.28
2022-09-03T14:45:55.742Z,21.23
2022-09-03T14:49:00.776Z,21.37
2022-09-03T14:52:03.407Z,21.36
2022-09-03T14:55:15.057Z,21.34
2022-09-03T14:58:19.406Z,21.26
2022-09-03T15:00:58.137Z,21.32
2022-09-03T15:03:55.469Z,21.21
2022-09-03T15:06:31.293Z,21.35
2022-09-03T15:09:28.739Z,21.40
2022-09-03T15:12:23.839Z,21.51
2022-09-03T15:14:56.646Z,21.58
2022-09-03T15:17:40.649Z,21.63
2022-09-03T15:20:24.315Z,21.78
2022-09-03T15:23:12.483Z,21.87
2022-09-03T15:26:00.058Z,22.01
2022-09-03T15:29:13.298Z,22.11
2022-09-03T15:32:01.501Z,21.95
2022-09-03T15:34:53.924Z,22.05
2022-09-03T15:37:35.204Z,22.12
2022-09-03T15:40:11.005Z,22.13
2022-09-03T15:42:38.858Z,21.99
2022-09-03T15:45:57.674Z,22.17
2022-09-03T15:48:53.397Z,22.12
2022-09-03T15:51:27.180Z,22.42
2022-09-03T15:54:12.624Z,22.34
2022-09-03T15:56:59.179Z,22.36
2022-09-03T15:59:38.324Z,22.36
2022-09-03T16:03:00.757Z,22.37
2022-09-03T16:05:52.246Z,22.40
2022-09-03T16:08:38.186Z,22.46
2022-09-03T16:11:39.330Z,22.42
2022-09-03T16:14:35.946Z,22.27
2022-09-03T16:17:21.244Z,22.44
2022-09-03T16:20:08.741Z,22.55
2022-09-03T16:23:04.796Z,22.88
2022-09-03T16:26:00.096Z,22.79
2022-09-03T16:28:41.328Z,22.65
2022-09-03T16:32:09.422Z,22.51
2022-09-03T16:35:15.222Z,22.43
2022-09-03T16:38:23.091Z,22.32
2022-09-03T16:41:18.574Z,22.26
2022-09-03T16:44:24.814Z,22.19
2022-09-03T16:47:11.813Z,22.16
2022-09-03T16:49:39.891Z,22.05
2022-09-03T16:52:37.622Z,21.94
2022-09-03T16:55:34.717Z,21.79
2022-09-03T16:58:23.710Z,21.76
2022-09-03T17:01:09.142Z,21.87
2022-09-03T17:04:00.824Z,21.75
2022-09-03T17:07:03.690Z,21.69
2022-09-03T17:10:01.611Z,21.81
2022-09-03T17:12:48.886Z,21.74
2022-09-03T17:15:34.585Z,21.74
2022-09-03T17:18:26.360Z,21.67
2022-09-03T17:21:04.583Z,21.79
2022-09-03T17:23:59.644Z,21.79
2022-09-03T17:26:48.108Z,21.75
2022-09-03T17:30:02.506Z,21.80
2022-09-03T17:33:09.996Z,21.83
2022-09-03T17:35:51.769Z,21.77
2022-09-03T17:39:01.495Z,21.75
2022-09-03T17:41:43.863Z,21.66
2022-09-03T17:44:54.444Z,21.36
2022-09-03T17:47:42.446Z,21.34
2022-09-03T17:50:11.968Z,21.23
2022-09-03T17:52:46.169Z,21.20
2022-09-03T17:55:36.511Z,20.97
2022-09-03T17:58:32.700Z,21.21
2022-09-03T18:01:13.654Z,21.17
2022-09-03T18:04:03.288Z,21.12
2022-09-03T18:06:37.587Z,21.04
2022-09-03T18:09:28.546Z,21.05
2022-09-03T18:12:10.692Z,21.02
2022-09-03T18:14:51.724Z,20.97
2022-09-03T18:17:32.897Z,20.77
2022-09-03T18:20:26.851Z,20.63
2022-09-03T18:23:35.992Z,20.64
2022-09-03T18:26:34.963Z,20.59
2022-09-03T18:29:32.121Z,20.48
2022-09-03T18:32:19.506Z,20.58
2022-09-03T18:35:06.252Z,20.42
2022-09-03T18:37:51.429Z,20.37
2022-09-03T18:40:46.500Z,20.15
2022-09-03T18:43:49.265Z,20.32
2022-09-03T18:50:31.116Z,20.39
2022-09-03T18:53:47.781Z,20.30
2022-09-03T18:56:55.677Z,20.25
2022-09-03T19:00:32.430Z,20.31
2022-09-03T19:04:01.071Z,20.25
2022-09-03T19:07:25.067Z,20.18
2022-09-03T19:10:29.433Z,20.12
2022-09-03T19:13:45.614Z,20.14
2022-09-03T19:17:11.046Z,20.11
2022-09-03T19:20:42.827Z,20.08
2022-09-03T19:23:29.270Z,20.01
2022-09-03T19:26:40.086Z,19.98
2022-09-03T19:29:52.955Z,19.93
2022-09-03T19:32:52.258Z,19.70
2022-09-03T19:35:41.964Z,19.72
2022-09-03T19:38:46.282Z,19.75
2022-09-03T19:41:54.385Z,19.86
2022-09-03T19:45:10.392Z,19.75
2022-09-03T19:48:27.861Z,19.79
2022-09-03T19:52:18.456Z,19.79
2022-09-03T19:55:07.627Z,19.71
2022-09-03T19:57:53.312Z,19.65
2022-09-03T20:00:41.423Z,19.60
2022-09-03T20:03:26.727Z,19.71
2022-09-03T20:06:12.218Z,19.66
2022-09-03T20:08:57.613Z,19.62
2022-09-03T20:11:27.597Z,19.58
2022-09-03T20:14:13.153Z,19.51
2022-09-03T20:17:12.826Z,19.56
2022-09-03T20:20:10.410Z,19.42
2022-09-03T20:22:52.313Z,19.44
2022-09-03T20:26:08.444Z,19.52
2022-09-03T20:28:52.422Z,19.52
2022-09-03T20:32:03.071Z,19.42
2022-09-03T20:34:50.937Z,19.42
2022-09-03T20:38:24.429Z,19.44
2022-09-03T20:41:13.970Z,19.33
2022-09-03T20:44:16.975Z,19.37
2022-09-03T20:47:04.466Z,19.27
2022-09-03T20:49:51.617Z,19.19
2022-09-03T20:52:45.691Z,19.27
2022-09-03T20:55:25.281Z,19.19
2022-09-03T20:58:19.414Z,19.20
2022-09-03T21:01:08.412Z,19.26
2022-09-03T21:04:33.933Z,19.25
2022-09-03T21:07:12.837Z,19.16
2022-09-03T21:09:55.218Z,19.18
2022-09-03T21:13:18.117Z,19.01
2022-09-03T21:16:23.772Z,19.16
2022-09-03T21:19:11.904Z,19.12
2022-09-03T21:21:45.650Z,19.25
2022-09-03T21:24:21.644Z,19.17
2022-09-03T21:26:58.852Z,19.12
2022-09-03T21:29:50.517Z,19.05
2022-09-03T21:32:24.071Z,19.13
2022-09-03T21:35:21.698Z,19.08
2022-09-03T21:37:59.553Z,19.03
2022-09-03T21:40:32.460Z,18.98
2022-09-03T21:43:17.570Z,19.01
2022-09-03T21:46:04.248Z,19.08
2022-09-03T21:48:42.197Z,19.01
2022-09-03T21:51:30.024Z,19.10
2022-09-03T21:54:09.497Z,19.14
2022-09-03T21:56:55.569Z,19.12
2022-09-03T22:00:09.107Z,19.24
2022-09-03T22:02:36.362Z,19.04
2022-09-03T22:05:05.332Z,19.25
2022-09-03T22:07:50.694Z,19.25
2022-09-03T22:10:26.069Z,19.22
2022-09-03T22:13:17.254Z,19.23
2022-09-03T22:15:50.205Z,19.13
2022-09-03T22:18:29.401Z,19.09
2022-09-03T22:21:26.950Z,19.06
2022-09-03T22:24:23.510Z,19.06
2022-09-03T22:27:29.104Z,19.14
2022-09-03T22:30:20.209Z,19.03
2022-09-03T22:33:21.709Z,18.95
2022-09-03T22:36:13.003Z,19.04
2022-09-03T22:39:08.078Z,19.06
2022-09-03T22:42:11.577Z,19.09
2022-09-03T22:44:55.497Z,18.98
2022-09-03T22:48:07.658Z,18.97
2022-09-03T22:50:57.025Z,19.09
2022-09-03T22:53:52.699Z,19.10
2022-09-03T22:56:22.410Z,19.01
2022-09-03T22:59:15.709Z,19.09
2022-09-03T23:02:00.499Z,18.91
2022-09-03T23:04:57.994Z,19.02
2022-09-03T23:07:48.179Z,19.07
2022-09-03T23:10:25.751Z,18.92
2022-09-03T23:13:16.889Z,18.82
2022-09-03T23:15:46.764Z,18.93
2022-09-03T23:18:17.859Z,18.77
2022-09-03T23:21:03.299Z,18.84
2022-09-03T23:23:36.240Z,18.78
2022-09-03T23:26:15.589Z,18.78
2022-09-03T23:28:49.664Z,18.75
2022-09-03T23:31:21.758Z,18.79
2022-09-03T23:33:52.090Z,18.68
2022-09-03T23:40:41.832Z,18.90
2022-09-03T23:43:31.009Z,18.86
2022-09-03T23:46:26.258Z,18.83
2022-09-03T23:49:15.178Z,18.81
2022-09-03T23:51:54.222Z,18.79
2022-09-03T23:54:39.017Z,18.66
2022-09-03T23:57:40.989Z,18.62
